sensor_id;sensor_type;location;lat;lon;timestamp;temperature;humidity
65038;DHT22;51605;47.040;15.294;2023-05-15T00:02:12;21.60;61.60
65038;DHT22;51605;47.040;15.294;2023-05-15T00:04:38;21.60;60.70
65038;DHT22;51605;47.040;15.294;2023-05-15T00:07:04;21.60;60.70
65038;DHT22;51605;47.040;15.294;2023-05-15T00:09:30;21.60;60.70
65038;DHT22;51605;47.040;15.294;2023-05-15T00:11:56;21.60;60.70
65038;DHT22;51605;47.040;15.294;2023-05-15T00:14:23;21.60;60.70
65038;DHT22;51605;47.040;15.294;2023-05-15T00:16:49;21.60;60.80
65038;DHT22;51605;47.040;15.294;2023-05-15T00:19:15;21.60;60.70
65038;DHT22;51605;47.040;15.294;2023-05-15T00:21:41;21.60;60.60
65038;DHT22;51605;47.040;15.294;2023-05-15T00:24:06;21.60;60.60
65038;DHT22;51605;47.040;15.294;2023-05-15T00:26:32;21.60;60.60
65038;DHT22;51605;47.040;15.294;2023-05-15T00:28:58;21.60;60.60
65038;DHT22;51605;47.040;15.294;2023-05-15T00:31:24;21.60;60.70
65038;DHT22;51605;47.040;15.294;2023-05-15T00:33:49;21.60;60.70
65038;DHT22;51605;47.040;15.294;2023-05-15T00:36:15;21.60;60.60
65038;DHT22;51605;47.040;15.294;2023-05-15T00:38:42;21.60;60.60
65038;DHT22;51605;47.040;15.294;2023-05-15T00:41:09;21.60;60.60
65038;DHT22;51605;47.040;15.294;2023-05-15T00:43:35;21.60;60.70
65038;DHT22;51605;47.040;15.294;2023-05-15T00:46:03;21.60;60.60
65038;DHT22;51605;47.040;15.294;2023-05-15T00:48:30;21.60;60.70
65038;DHT22;51605;47.040;15.294;2023-05-15T00:50:58;21.60;60.70
65038;DHT22;51605;47.040;15.294;2023-05-15T00:53:25;21.60;60.70
65038;DHT22;51605;47.040;15.294;2023-05-15T00:55:53;21.60;60.70
65038;DHT22;51605;47.040;15.294;2023-05-15T00:58:21;21.60;60.60
65038;DHT22;51605;47.040;15.294;2023-05-15T01:00:48;21.60;60.60
65038;DHT22;51605;47.040;15.294;2023-05-15T01:03:15;21.60;60.60
65038;DHT22;51605;47.040;15.294;2023-05-15T01:05:41;21.60;60.50
65038;DHT22;51605;47.040;15.294;2023-05-15T01:08:20;21.60;60.60
65038;DHT22;51605;47.040;15.294;2023-05-15T01:10:48;21.60;60.60
65038;DHT22;51605;47.040;15.294;2023-05-15T01:13:19;21.60;60.70
65038;DHT22;51605;47.040;15.294;2023-05-15T01:15:46;21.60;60.60
65038;DHT22;51605;47.040;15.294;2023-05-15T01:18:11;21.60;60.70
65038;DHT22;51605;47.040;15.294;2023-05-15T01:20:49;21.60;60.70
65038;DHT22;51605;47.040;15.294;2023-05-15T01:23:32;21.60;60.70
65038;DHT22;51605;47.040;15.294;2023-05-15T01:29:35;21.60;60.70
65038;DHT22;51605;47.040;15.294;2023-05-15T01:32:03;21.60;60.70
65038;DHT22;51605;47.040;15.294;2023-05-15T01:34:43;21.60;60.70
65038;DHT22;51605;47.040;15.294;2023-05-15T01:37:13;21.60;60.60
65038;DHT22;51605;47.040;15.294;2023-05-15T01:39:40;21.60;60.60
65038;DHT22;51605;47.040;15.294;2023-05-15T01:42:10;21.60;60.70
65038;DHT22;51605;47.040;15.294;2023-05-15T01:44:42;21.60;60.70
65038;DHT22;51605;47.040;15.294;2023-05-15T01:47:13;21.60;60.70
65038;DHT22;51605;47.040;15.294;2023-05-15T01:49:41;21.60;60.70
65038;DHT22;51605;47.040;15.294;2023-05-15T01:52:23;21.60;60.70
65038;DHT22;51605;47.040;15.294;2023-05-15T01:54:53;21.60;60.60
65038;DHT22;51605;47.040;15.294;2023-05-15T01:57:21;21.60;60.60
65038;DHT22;51605;47.040;15.294;2023-05-15T01:59:48;21.60;60.60
65038;DHT22;51605;47.040;15.294;2023-05-15T02:02:14;21.60;60.60
65038;DHT22;51605;47.040;15.294;2023-05-15T02:04:43;21.60;60.60
65038;DHT22;51605;47.040;15.294;2023-05-15T02:07:09;21.60;60.60
65038;DHT22;51605;47.040;15.294;2023-05-15T02:09:36;21.60;60.60
65038;DHT22;51605;47.040;15.294;2023-05-15T02:12:02;21.60;60.70
65038;DHT22;51605;47.040;15.294;2023-05-15T02:14:28;21.60;60.60
65038;DHT22;51605;47.040;15.294;2023-05-15T02:16:55;21.60;60.60
65038;DHT22;51605;47.040;15.294;2023-05-15T02:19:20;21.60;60.60
65038;DHT22;51605;47.040;15.294;2023-05-15T02:21:46;21.60;60.60
65038;DHT22;51605;47.040;15.294;2023-05-15T02:24:12;21.60;60.60
65038;DHT22;51605;47.040;15.294;2023-05-15T02:29:41;21.60;60.60
65038;DHT22;51605;47.040;15.294;2023-05-15T02:37:46;21.60;60.70
65038;DHT22;51605;47.040;15.294;2023-05-15T02:40:12;21.60;60.60
65038;DHT22;51605;47.040;15.294;2023-05-15T02:42:44;21.60;60.60
65038;DHT22;51605;47.040;15.294;2023-05-15T02:45:11;21.60;60.60
65038;DHT22;51605;47.040;15.294;2023-05-15T02:47:38;21.60;60.60
65038;DHT22;51605;47.040;15.294;2023-05-15T02:50:05;21.60;60.70
65038;DHT22;51605;47.040;15.294;2023-05-15T02:52:32;21.60;60.60
65038;DHT22;51605;47.040;15.294;2023-05-15T02:54:59;21.60;60.60
65038;DHT22;51605;47.040;15.294;2023-05-15T02:57:25;21.60;60.60
65038;DHT22;51605;47.040;15.294;2023-05-15T02:59:55;21.60;60.60
65038;DHT22;51605;47.040;15.294;2023-05-15T03:02:21;21.60;60.60
65038;DHT22;51605;47.040;15.294;2023-05-15T03:04:47;21.60;60.70
65038;DHT22;51605;47.040;15.294;2023-05-15T03:07:13;21.60;60.60
65038;DHT22;51605;47.040;15.294;2023-05-15T03:09:39;21.60;60.60
65038;DHT22;51605;47.040;15.294;2023-05-15T03:12:06;21.60;60.60
65038;DHT22;51605;47.040;15.294;2023-05-15T03:14:31;21.60;60.50
65038;DHT22;51605;47.040;15.294;2023-05-15T03:16:58;21.60;60.60
65038;DHT22;51605;47.040;15.294;2023-05-15T03:19:24;21.60;60.60
65038;DHT22;51605;47.040;15.294;2023-05-15T03:21:50;21.60;60.60
65038;DHT22;51605;47.040;15.294;2023-05-15T03:24:15;21.60;60.60
65038;DHT22;51605;47.040;15.294;2023-05-15T03:26:41;21.60;60.60
65038;DHT22;51605;47.040;15.294;2023-05-15T03:29:08;21.60;60.50
65038;DHT22;51605;47.040;15.294;2023-05-15T03:31:34;21.60;60.60
65038;DHT22;51605;47.040;15.294;2023-05-15T03:33:59;21.60;60.50
65038;DHT22;51605;47.040;15.294;2023-05-15T03:36:25;21.60;60.50
65038;DHT22;51605;47.040;15.294;2023-05-15T03:38:50;21.60;60.50
65038;DHT22;51605;47.040;15.294;2023-05-15T03:41:16;21.60;60.60
65038;DHT22;51605;47.040;15.294;2023-05-15T03:43:42;21.60;61.00
65038;DHT22;51605;47.040;15.294;2023-05-15T03:46:07;21.60;60.50
65038;DHT22;51605;47.040;15.294;2023-05-15T03:48:33;21.60;61.40
65038;DHT22;51605;47.040;15.294;2023-05-15T03:50:58;21.60;60.50
65038;DHT22;51605;47.040;15.294;2023-05-15T03:53:24;21.60;60.50
65038;DHT22;51605;47.040;15.294;2023-05-15T03:55:50;21.60;60.60
65038;DHT22;51605;47.040;15.294;2023-05-15T03:58:16;21.60;60.60
65038;DHT22;51605;47.040;15.294;2023-05-15T04:00:41;21.60;60.60
65038;DHT22;51605;47.040;15.294;2023-05-15T04:03:08;21.60;60.50
65038;DHT22;51605;47.040;15.294;2023-05-15T04:05:33;21.60;60.60
65038;DHT22;51605;47.040;15.294;2023-05-15T04:07:59;21.60;60.60
65038;DHT22;51605;47.040;15.294;2023-05-15T04:10:25;21.60;60.90
65038;DHT22;51605;47.040;15.294;2023-05-15T04:12:50;21.60;60.60
65038;DHT22;51605;47.040;15.294;2023-05-15T04:17:44;21.60;60.50
65038;DHT22;51605;47.040;15.294;2023-05-15T04:20:11;21.60;60.60
65038;DHT22;51605;47.040;15.294;2023-05-15T04:22:38;21.60;60.50
65038;DHT22;51605;47.040;15.294;2023-05-15T04:25:04;21.60;60.50
65038;DHT22;51605;47.040;15.294;2023-05-15T04:27:30;21.60;60.60
65038;DHT22;51605;47.040;15.294;2023-05-15T04:29:55;21.60;60.60
65038;DHT22;51605;47.040;15.294;2023-05-15T04:32:21;21.60;60.60
65038;DHT22;51605;47.040;15.294;2023-05-15T04:34:47;21.60;60.60
65038;DHT22;51605;47.040;15.294;2023-05-15T04:37:13;21.60;60.50
65038;DHT22;51605;47.040;15.294;2023-05-15T04:39:38;21.60;60.60
65038;DHT22;51605;47.040;15.294;2023-05-15T04:42:04;21.60;60.50
65038;DHT22;51605;47.040;15.294;2023-05-15T04:44:30;21.60;60.50
65038;DHT22;51605;47.040;15.294;2023-05-15T04:46:56;21.60;60.50
65038;DHT22;51605;47.040;15.294;2023-05-15T04:49:22;21.60;60.50
65038;DHT22;51605;47.040;15.294;2023-05-15T04:51:47;21.60;60.50
65038;DHT22;51605;47.040;15.294;2023-05-15T04:54:13;21.60;60.50
65038;DHT22;51605;47.040;15.294;2023-05-15T04:56:38;21.60;60.50
65038;DHT22;51605;47.040;15.294;2023-05-15T04:59:04;21.60;60.50
65038;DHT22;51605;47.040;15.294;2023-05-15T05:01:29;21.60;60.50
65038;DHT22;51605;47.040;15.294;2023-05-15T05:03:55;21.60;60.50
65038;DHT22;51605;47.040;15.294;2023-05-15T05:06:22;21.60;60.60
65038;DHT22;51605;47.040;15.294;2023-05-15T05:08:47;21.60;60.60
65038;DHT22;51605;47.040;15.294;2023-05-15T05:11:13;21.60;60.50
65038;DHT22;51605;47.040;15.294;2023-05-15T05:13:38;21.60;60.50
65038;DHT22;51605;47.040;15.294;2023-05-15T05:16:04;21.60;60.50
65038;DHT22;51605;47.040;15.294;2023-05-15T05:18:30;21.60;60.50
65038;DHT22;51605;47.040;15.294;2023-05-15T05:21:00;21.60;60.60
65038;DHT22;51605;47.040;15.294;2023-05-15T05:23:26;21.60;60.60
65038;DHT22;51605;47.040;15.294;2023-05-15T05:25:52;21.60;60.90
65038;DHT22;51605;47.040;15.294;2023-05-15T05:28:17;21.60;61.00
65038;DHT22;51605;47.040;15.294;2023-05-15T05:30:47;21.50;60.80
65038;DHT22;51605;47.040;15.294;2023-05-15T05:33:13;21.50;60.40
65038;DHT22;51605;47.040;15.294;2023-05-15T05:35:38;21.50;60.10
65038;DHT22;51605;47.040;15.294;2023-05-15T05:38:04;21.50;59.80
65038;DHT22;51605;47.040;15.294;2023-05-15T05:40:30;21.50;59.40
65038;DHT22;51605;47.040;15.294;2023-05-15T05:43:01;21.50;59.00
65038;DHT22;51605;47.040;15.294;2023-05-15T05:45:27;21.50;58.60
65038;DHT22;51605;47.040;15.294;2023-05-15T05:47:56;21.50;58.60
65038;DHT22;51605;47.040;15.294;2023-05-15T05:50:22;21.40;58.50
65038;DHT22;51605;47.040;15.294;2023-05-15T05:52:48;21.40;58.60
65038;DHT22;51605;47.040;15.294;2023-05-15T05:55:14;21.40;58.40
65038;DHT22;51605;47.040;15.294;2023-05-15T05:57:40;21.40;58.30
65038;DHT22;51605;47.040;15.294;2023-05-15T06:00:06;21.40;58.30
65038;DHT22;51605;47.040;15.294;2023-05-15T06:02:36;21.40;58.20
65038;DHT22;51605;47.040;15.294;2023-05-15T06:05:02;21.40;58.10
65038;DHT22;51605;47.040;15.294;2023-05-15T06:07:28;21.40;57.70
65038;DHT22;51605;47.040;15.294;2023-05-15T06:09:54;21.40;57.40
65038;DHT22;51605;47.040;15.294;2023-05-15T06:12:19;21.40;57.20
65038;DHT22;51605;47.040;15.294;2023-05-15T06:14:45;21.40;57.10
65038;DHT22;51605;47.040;15.294;2023-05-15T06:17:11;21.40;57.00
65038;DHT22;51605;47.040;15.294;2023-05-15T06:19:37;21.40;56.80
65038;DHT22;51605;47.040;15.294;2023-05-15T06:22:02;21.30;56.60
65038;DHT22;51605;47.040;15.294;2023-05-15T06:24:28;21.40;56.60
65038;DHT22;51605;47.040;15.294;2023-05-15T06:26:54;21.30;56.40
65038;DHT22;51605;47.040;15.294;2023-05-15T06:29:19;21.30;56.50
65038;DHT22;51605;47.040;15.294;2023-05-15T06:31:45;21.30;56.50
65038;DHT22;51605;47.040;15.294;2023-05-15T06:34:10;21.30;56.50
65038;DHT22;51605;47.040;15.294;2023-05-15T06:36:36;21.40;57.10
65038;DHT22;51605;47.040;15.294;2023-05-15T06:39:02;21.30;56.40
65038;DHT22;51605;47.040;15.294;2023-05-15T06:41:28;21.40;56.40
65038;DHT22;51605;47.040;15.294;2023-05-15T06:43:53;21.30;56.60
65038;DHT22;51605;47.040;15.294;2023-05-15T06:46:20;21.30;56.80
65038;DHT22;51605;47.040;15.294;2023-05-15T06:48:49;21.30;56.80
65038;DHT22;51605;47.040;15.294;2023-05-15T06:51:14;21.40;56.90
65038;DHT22;51605;47.040;15.294;2023-05-15T06:53:40;21.40;56.70
65038;DHT22;51605;47.040;15.294;2023-05-15T06:56:07;21.40;56.90
65038;DHT22;51605;47.040;15.294;2023-05-15T06:58:32;21.40;56.90
65038;DHT22;51605;47.040;15.294;2023-05-15T07:00:59;21.40;57.00
65038;DHT22;51605;47.040;15.294;2023-05-15T07:03:25;21.40;56.70
65038;DHT22;51605;47.040;15.294;2023-05-15T07:05:52;21.40;56.60
65038;DHT22;51605;47.040;15.294;2023-05-15T07:08:18;21.50;57.00
65038;DHT22;51605;47.040;15.294;2023-05-15T07:10:44;21.50;57.00
65038;DHT22;51605;47.040;15.294;2023-05-15T07:13:10;21.40;57.10
65038;DHT22;51605;47.040;15.294;2023-05-15T07:15:35;21.50;57.20
65038;DHT22;51605;47.040;15.294;2023-05-15T07:18:01;21.50;57.20
65038;DHT22;51605;47.040;15.294;2023-05-15T07:20:26;21.40;57.20
65038;DHT22;51605;47.040;15.294;2023-05-15T07:22:52;21.50;58.10
65038;DHT22;51605;47.040;15.294;2023-05-15T07:25:17;21.50;57.30
65038;DHT22;51605;47.040;15.294;2023-05-15T07:27:43;21.50;57.30
65038;DHT22;51605;47.040;15.294;2023-05-15T07:30:09;21.50;57.40
65038;DHT22;51605;47.040;15.294;2023-05-15T07:32:35;21.50;57.40
65038;DHT22;51605;47.040;15.294;2023-05-15T07:35:00;21.50;57.30
65038;DHT22;51605;47.040;15.294;2023-05-15T07:37:28;21.50;57.20
65038;DHT22;51605;47.040;15.294;2023-05-15T07:39:53;21.50;57.10
65038;DHT22;51605;47.040;15.294;2023-05-15T07:42:20;21.50;56.90
65038;DHT22;51605;47.040;15.294;2023-05-15T07:44:46;21.50;57.00
65038;DHT22;51605;47.040;15.294;2023-05-15T07:47:12;21.50;57.20
65038;DHT22;51605;47.040;15.294;2023-05-15T07:49:37;21.50;57.20
65038;DHT22;51605;47.040;15.294;2023-05-15T07:52:03;21.50;57.00
65038;DHT22;51605;47.040;15.294;2023-05-15T07:54:28;21.50;57.10
65038;DHT22;51605;47.040;15.294;2023-05-15T07:56:56;21.50;57.10
65038;DHT22;51605;47.040;15.294;2023-05-15T07:59:23;21.50;57.20
65038;DHT22;51605;47.040;15.294;2023-05-15T08:01:48;21.50;57.30
65038;DHT22;51605;47.040;15.294;2023-05-15T08:04:14;21.50;57.30
65038;DHT22;51605;47.040;15.294;2023-05-15T08:06:40;21.50;57.20
65038;DHT22;51605;47.040;15.294;2023-05-15T08:09:07;21.50;57.10
65038;DHT22;51605;47.040;15.294;2023-05-15T08:11:33;21.50;57.10
65038;DHT22;51605;47.040;15.294;2023-05-15T08:13:58;21.50;57.10
65038;DHT22;51605;47.040;15.294;2023-05-15T08:16:24;21.50;57.20
65038;DHT22;51605;47.040;15.294;2023-05-15T08:18:49;21.50;57.40
65038;DHT22;51605;47.040;15.294;2023-05-15T08:21:17;21.50;57.40
65038;DHT22;51605;47.040;15.294;2023-05-15T08:23:43;21.50;57.50
65038;DHT22;51605;47.040;15.294;2023-05-15T08:26:09;21.50;57.20
65038;DHT22;51605;47.040;15.294;2023-05-15T08:28:34;21.50;57.10
65038;DHT22;51605;47.040;15.294;2023-05-15T08:31:00;21.50;57.20
65038;DHT22;51605;47.040;15.294;2023-05-15T08:33:25;21.50;56.90
65038;DHT22;51605;47.040;15.294;2023-05-15T08:35:51;21.50;56.90
65038;DHT22;51605;47.040;15.294;2023-05-15T08:38:18;21.40;56.70
65038;DHT22;51605;47.040;15.294;2023-05-15T08:40:46;21.40;56.80
65038;DHT22;51605;47.040;15.294;2023-05-15T08:43:15;21.50;56.90
65038;DHT22;51605;47.040;15.294;2023-05-15T08:45:42;21.50;57.10
65038;DHT22;51605;47.040;15.294;2023-05-15T08:48:11;21.50;57.20
65038;DHT22;51605;47.040;15.294;2023-05-15T08:50:38;21.50;57.10
65038;DHT22;51605;47.040;15.294;2023-05-15T08:53:04;21.50;57.20
65038;DHT22;51605;47.040;15.294;2023-05-15T08:55:30;21.50;57.20
65038;DHT22;51605;47.040;15.294;2023-05-15T08:57:57;21.50;57.00
65038;DHT22;51605;47.040;15.294;2023-05-15T09:00:24;21.50;57.10
65038;DHT22;51605;47.040;15.294;2023-05-15T09:02:53;21.50;57.10
65038;DHT22;51605;47.040;15.294;2023-05-15T09:05:18;21.50;57.30
65038;DHT22;51605;47.040;15.294;2023-05-15T09:07:45;21.50;57.20
65038;DHT22;51605;47.040;15.294;2023-05-15T09:10:12;21.50;56.80
65038;DHT22;51605;47.040;15.294;2023-05-15T09:12:42;21.50;56.80
65038;DHT22;51605;47.040;15.294;2023-05-15T09:15:16;21.40;56.70
65038;DHT22;51605;47.040;15.294;2023-05-15T09:17:43;21.40;56.70
65038;DHT22;51605;47.040;15.294;2023-05-15T09:20:33;21.40;56.80
65038;DHT22;51605;47.040;15.294;2023-05-15T09:23:00;21.50;56.90
65038;DHT22;51605;47.040;15.294;2023-05-15T09:28:05;21.50;56.90
65038;DHT22;51605;47.040;15.294;2023-05-15T09:30:30;21.50;56.80
65038;DHT22;51605;47.040;15.294;2023-05-15T09:33:00;21.50;56.70
65038;DHT22;51605;47.040;15.294;2023-05-15T09:35:34;21.50;56.80
65038;DHT22;51605;47.040;15.294;2023-05-15T09:38:02;21.50;57.10
65038;DHT22;51605;47.040;15.294;2023-05-15T09:40:30;21.50;56.90
65038;DHT22;51605;47.040;15.294;2023-05-15T09:42:57;21.50;57.00
65038;DHT22;51605;47.040;15.294;2023-05-15T09:45:23;21.50;57.00
65038;DHT22;51605;47.040;15.294;2023-05-15T09:48:00;21.50;57.20
65038;DHT22;51605;47.040;15.294;2023-05-15T09:50:36;21.50;57.00
65038;DHT22;51605;47.040;15.294;2023-05-15T09:53:03;21.50;57.10
65038;DHT22;51605;47.040;15.294;2023-05-15T09:55:33;21.50;57.20
65038;DHT22;51605;47.040;15.294;2023-05-15T09:58:10;21.50;57.00
65038;DHT22;51605;47.040;15.294;2023-05-15T10:00:37;21.50;56.80
65038;DHT22;51605;47.040;15.294;2023-05-15T10:03:04;21.50;56.80
65038;DHT22;51605;47.040;15.294;2023-05-15T10:05:31;21.50;56.80
65038;DHT22;51605;47.040;15.294;2023-05-15T10:07:57;21.50;56.60
65038;DHT22;51605;47.040;15.294;2023-05-15T10:10:24;21.50;56.50
65038;DHT22;51605;47.040;15.294;2023-05-15T10:12:51;21.50;56.20
65038;DHT22;51605;47.040;15.294;2023-05-15T10:15:18;21.50;56.20
65038;DHT22;51605;47.040;15.294;2023-05-15T10:17:46;21.50;56.30
65038;DHT22;51605;47.040;15.294;2023-05-15T10:20:12;21.50;56.20
65038;DHT22;51605;47.040;15.294;2023-05-15T10:22:40;21.50;56.30
65038;DHT22;51605;47.040;15.294;2023-05-15T10:27:58;21.40;56.20
65038;DHT22;51605;47.040;15.294;2023-05-15T10:30:25;21.40;56.30
65038;DHT22;51605;47.040;15.294;2023-05-15T10:32:51;21.40;56.30
65038;DHT22;51605;47.040;15.294;2023-05-15T10:35:17;21.40;56.20
65038;DHT22;51605;47.040;15.294;2023-05-15T10:37:45;21.40;56.20
65038;DHT22;51605;47.040;15.294;2023-05-15T10:40:12;21.50;56.20
65038;DHT22;51605;47.040;15.294;2023-05-15T10:42:41;21.50;56.20
65038;DHT22;51605;47.040;15.294;2023-05-15T10:45:08;21.50;56.20
65038;DHT22;51605;47.040;15.294;2023-05-15T10:47:36;21.40;56.10
65038;DHT22;51605;47.040;15.294;2023-05-15T10:50:03;21.50;56.20
65038;DHT22;51605;47.040;15.294;2023-05-15T10:52:30;21.50;56.00
65038;DHT22;51605;47.040;15.294;2023-05-15T10:54:56;21.50;55.90
65038;DHT22;51605;47.040;15.294;2023-05-15T10:57:22;21.60;56.00
65038;DHT22;51605;47.040;15.294;2023-05-15T10:59:48;21.60;55.90
65038;DHT22;51605;47.040;15.294;2023-05-15T11:02:24;21.50;55.90
65038;DHT22;51605;47.040;15.294;2023-05-15T11:04:57;21.50;55.90
65038;DHT22;51605;47.040;15.294;2023-05-15T11:07:23;21.50;55.80
65038;DHT22;51605;47.040;15.294;2023-05-15T11:09:51;21.50;55.90
65038;DHT22;51605;47.040;15.294;2023-05-15T11:12:17;21.50;55.90
65038;DHT22;51605;47.040;15.294;2023-05-15T11:17:25;21.60;55.80
65038;DHT22;51605;47.040;15.294;2023-05-15T11:22:18;21.50;55.80
65038;DHT22;51605;47.040;15.294;2023-05-15T11:27:17;21.50;55.90
65038;DHT22;51605;47.040;15.294;2023-05-15T11:32:44;21.50;56.00
65038;DHT22;51605;47.040;15.294;2023-05-15T11:35:21;21.50;56.00
65038;DHT22;51605;47.040;15.294;2023-05-15T11:37:52;21.50;56.00
65038;DHT22;51605;47.040;15.294;2023-05-15T11:40:19;21.50;56.00
65038;DHT22;51605;47.040;15.294;2023-05-15T11:43:46;21.50;55.90
65038;DHT22;51605;47.040;15.294;2023-05-15T11:48:34;21.50;55.90
65038;DHT22;51605;47.040;15.294;2023-05-15T11:51:02;21.50;55.80
65038;DHT22;51605;47.040;15.294;2023-05-15T11:53:29;21.50;55.80
65038;DHT22;51605;47.040;15.294;2023-05-15T11:55:55;21.50;55.80
65038;DHT22;51605;47.040;15.294;2023-05-15T11:58:22;21.50;55.80
65038;DHT22;51605;47.040;15.294;2023-05-15T12:00:49;21.50;55.80
65038;DHT22;51605;47.040;15.294;2023-05-15T12:03:25;21.50;56.70
65038;DHT22;51605;47.040;15.294;2023-05-15T12:05:51;21.50;55.70
65038;DHT22;51605;47.040;15.294;2023-05-15T12:08:20;21.50;55.70
65038;DHT22;51605;47.040;15.294;2023-05-15T12:10:46;21.50;55.60
65038;DHT22;51605;47.040;15.294;2023-05-15T12:13:13;21.50;55.50
65038;DHT22;51605;47.040;15.294;2023-05-15T12:15:42;21.50;55.40
65038;DHT22;51605;47.040;15.294;2023-05-15T12:18:08;21.50;55.40
65038;DHT22;51605;47.040;15.294;2023-05-15T12:20:35;21.50;55.30
65038;DHT22;51605;47.040;15.294;2023-05-15T12:23:02;21.50;55.30
65038;DHT22;51605;47.040;15.294;2023-05-15T12:25:29;21.50;55.30
65038;DHT22;51605;47.040;15.294;2023-05-15T12:27:55;21.50;55.30
65038;DHT22;51605;47.040;15.294;2023-05-15T12:30:22;21.50;55.30
65038;DHT22;51605;47.040;15.294;2023-05-15T12:32:48;21.50;55.10
65038;DHT22;51605;47.040;15.294;2023-05-15T12:35:14;21.50;55.00
65038;DHT22;51605;47.040;15.294;2023-05-15T12:37:40;21.50;55.00
65038;DHT22;51605;47.040;15.294;2023-05-15T12:40:06;21.50;54.90
65038;DHT22;51605;47.040;15.294;2023-05-15T12:42:44;21.50;54.90
65038;DHT22;51605;47.040;15.294;2023-05-15T12:45:18;21.50;54.80
65038;DHT22;51605;47.040;15.294;2023-05-15T12:47:45;21.50;54.90
65038;DHT22;51605;47.040;15.294;2023-05-15T12:50:17;21.50;54.80
65038;DHT22;51605;47.040;15.294;2023-05-15T12:52:52;21.50;54.70
65038;DHT22;51605;47.040;15.294;2023-05-15T12:55:25;21.50;54.60
65038;DHT22;51605;47.040;15.294;2023-05-15T12:58:04;21.50;54.70
65038;DHT22;51605;47.040;15.294;2023-05-15T13:00:34;21.50;54.70
65038;DHT22;51605;47.040;15.294;2023-05-15T13:03:01;21.50;54.70
65038;DHT22;51605;47.040;15.294;2023-05-15T13:05:34;21.40;54.60
65038;DHT22;51605;47.040;15.294;2023-05-15T13:08:01;21.40;54.60
65038;DHT22;51605;47.040;15.294;2023-05-15T13:10:28;21.40;54.60
65038;DHT22;51605;47.040;15.294;2023-05-15T13:12:56;21.40;54.60
65038;DHT22;51605;47.040;15.294;2023-05-15T13:18:03;21.40;54.50
65038;DHT22;51605;47.040;15.294;2023-05-15T13:20:34;21.40;54.50
65038;DHT22;51605;47.040;15.294;2023-05-15T13:23:00;21.40;54.50
65038;DHT22;51605;47.040;15.294;2023-05-15T13:25:26;21.40;54.50
65038;DHT22;51605;47.040;15.294;2023-05-15T13:27:53;21.40;54.40
65038;DHT22;51605;47.040;15.294;2023-05-15T13:30:19;21.40;54.40
65038;DHT22;51605;47.040;15.294;2023-05-15T13:32:45;21.40;54.30
65038;DHT22;51605;47.040;15.294;2023-05-15T13:35:11;21.40;54.30
65038;DHT22;51605;47.040;15.294;2023-05-15T13:37:37;21.40;54.20
65038;DHT22;51605;47.040;15.294;2023-05-15T13:40:04;21.40;54.20
65038;DHT22;51605;47.040;15.294;2023-05-15T13:42:31;21.40;54.20
65038;DHT22;51605;47.040;15.294;2023-05-15T13:44:57;21.40;54.20
65038;DHT22;51605;47.040;15.294;2023-05-15T13:47:23;21.40;54.20
65038;DHT22;51605;47.040;15.294;2023-05-15T13:49:48;21.40;54.10
65038;DHT22;51605;47.040;15.294;2023-05-15T13:52:14;21.40;54.10
65038;DHT22;51605;47.040;15.294;2023-05-15T13:54:40;21.40;54.00
65038;DHT22;51605;47.040;15.294;2023-05-15T13:57:05;21.40;54.00
65038;DHT22;51605;47.040;15.294;2023-05-15T13:59:31;21.40;54.10
65038;DHT22;51605;47.040;15.294;2023-05-15T14:01:56;21.40;54.10
65038;DHT22;51605;47.040;15.294;2023-05-15T14:04:22;21.40;54.10
65038;DHT22;51605;47.040;15.294;2023-05-15T14:06:48;21.40;54.00
65038;DHT22;51605;47.040;15.294;2023-05-15T14:09:13;21.40;54.00
65038;DHT22;51605;47.040;15.294;2023-05-15T14:11:39;21.40;53.90
65038;DHT22;51605;47.040;15.294;2023-05-15T14:14:04;21.40;53.90
65038;DHT22;51605;47.040;15.294;2023-05-15T14:16:30;21.40;53.80
65038;DHT22;51605;47.040;15.294;2023-05-15T14:18:56;21.40;53.80
65038;DHT22;51605;47.040;15.294;2023-05-15T14:21:22;21.40;53.80
65038;DHT22;51605;47.040;15.294;2023-05-15T14:23:48;21.40;53.80
65038;DHT22;51605;47.040;15.294;2023-05-15T14:26:13;21.40;54.70
65038;DHT22;51605;47.040;15.294;2023-05-15T14:28:39;21.40;53.80
65038;DHT22;51605;47.040;15.294;2023-05-15T14:31:04;21.40;53.70
65038;DHT22;51605;47.040;15.294;2023-05-15T14:33:30;21.40;53.70
65038;DHT22;51605;47.040;15.294;2023-05-15T14:35:56;21.40;53.50
65038;DHT22;51605;47.040;15.294;2023-05-15T14:38:21;21.40;53.50
65038;DHT22;51605;47.040;15.294;2023-05-15T14:40:47;21.40;53.30
65038;DHT22;51605;47.040;15.294;2023-05-15T14:43:12;21.40;53.30
65038;DHT22;51605;47.040;15.294;2023-05-15T14:45:38;21.40;52.90
65038;DHT22;51605;47.040;15.294;2023-05-15T14:48:04;21.40;52.80
65038;DHT22;51605;47.040;15.294;2023-05-15T14:50:29;21.40;52.80
65038;DHT22;51605;47.040;15.294;2023-05-15T14:52:55;21.40;52.50
65038;DHT22;51605;47.040;15.294;2023-05-15T14:55:21;21.40;52.50
65038;DHT22;51605;47.040;15.294;2023-05-15T14:57:47;21.40;52.50
65038;DHT22;51605;47.040;15.294;2023-05-15T15:00:16;21.30;52.30
65038;DHT22;51605;47.040;15.294;2023-05-15T15:02:42;21.30;52.30
65038;DHT22;51605;47.040;15.294;2023-05-15T15:05:08;21.30;52.30
65038;DHT22;51605;47.040;15.294;2023-05-15T15:10:21;21.30;51.90
65038;DHT22;51605;47.040;15.294;2023-05-15T15:12:47;21.30;51.90
65038;DHT22;51605;47.040;15.294;2023-05-15T15:15:13;21.30;51.90
65038;DHT22;51605;47.040;15.294;2023-05-15T15:17:38;21.30;51.70
65038;DHT22;51605;47.040;15.294;2023-05-15T15:20:04;21.30;51.70
65038;DHT22;51605;47.040;15.294;2023-05-15T15:22:30;21.30;51.60
65038;DHT22;51605;47.040;15.294;2023-05-15T15:24:56;21.40;51.60
65038;DHT22;51605;47.040;15.294;2023-05-15T15:27:21;21.30;51.50
65038;DHT22;51605;47.040;15.294;2023-05-15T15:29:47;21.30;51.40
65038;DHT22;51605;47.040;15.294;2023-05-15T15:32:12;21.40;51.20
65038;DHT22;51605;47.040;15.294;2023-05-15T15:34:38;21.30;51.00
65038;DHT22;51605;47.040;15.294;2023-05-15T15:37:04;21.30;51.00
65038;DHT22;51605;47.040;15.294;2023-05-15T15:39:29;21.30;50.80
65038;DHT22;51605;47.040;15.294;2023-05-15T15:41:56;21.30;50.90
65038;DHT22;51605;47.040;15.294;2023-05-15T15:44:22;21.30;50.70
65038;DHT22;51605;47.040;15.294;2023-05-15T15:46:48;21.40;50.80
65038;DHT22;51605;47.040;15.294;2023-05-15T15:49:13;21.30;50.60
65038;DHT22;51605;47.040;15.294;2023-05-15T15:51:39;21.30;50.60
65038;DHT22;51605;47.040;15.294;2023-05-15T15:54:08;21.30;50.40